sensor_id;sensor_type;location;lat;lon;timestamp;P1;durP1;ratioP1;P2;durP2;ratioP2
56481;SDS011;42384;45.186;19.958;2023-04-05T00:01:16;5.72;;;3.13;;
56481;SDS011;42384;45.186;19.958;2023-04-05T00:03:44;7.82;;;3.05;;
56481;SDS011;42384;45.186;19.958;2023-04-05T00:06:11;9.63;;;3.58;;
56481;SDS011;42384;45.186;19.958;2023-04-05T00:08:37;7.07;;;3.72;;
56481;SDS011;42384;45.186;19.958;2023-04-05T00:11:04;9.25;;;4.40;;
56481;SDS011;42384;45.186;19.958;2023-04-05T00:13:30;11.25;;;5.00;;
56481;SDS011;42384;45.186;19.958;2023-04-05T00:15:56;10.43;;;5.82;;
56481;SDS011;42384;45.186;19.958;2023-04-05T00:18:24;13.25;;;5.68;;
56481;SDS011;42384;45.186;19.958;2023-04-05T00:20:51;9.27;;;4.50;;
56481;SDS011;42384;45.186;19.958;2023-04-05T00:23:17;8.07;;;4.60;;
56481;SDS011;42384;45.186;19.958;2023-04-05T00:25:45;9.73;;;5.18;;
56481;SDS011;42384;45.186;19.958;2023-04-05T00:28:11;9.18;;;5.25;;
56481;SDS011;42384;45.186;19.958;2023-04-05T00:30:38;8.57;;;3.80;;
56481;SDS011;42384;45.186;19.958;2023-04-05T00:33:04;8.32;;;4.43;;
56481;SDS011;42384;45.186;19.958;2023-04-05T00:35:31;11.43;;;4.32;;
56481;SDS011;42384;45.186;19.958;2023-04-05T00:37:57;9.10;;;4.32;;
56481;SDS011;42384;45.186;19.958;2023-04-05T00:40:23;8.90;;;4.05;;
56481;SDS011;42384;45.186;19.958;2023-04-05T00:42:50;8.70;;;3.55;;
56481;SDS011;42384;45.186;19.958;2023-04-05T00:45:16;8.02;;;3.80;;
56481;SDS011;42384;45.186;19.958;2023-04-05T00:47:42;7.13;;;2.65;;
56481;SDS011;42384;45.186;19.958;2023-04-05T00:50:09;10.57;;;3.30;;
56481;SDS011;42384;45.186;19.958;2023-04-05T00:55:03;4.57;;;2.53;;
56481;SDS011;42384;45.186;19.958;2023-04-05T00:57:33;10.38;;;3.03;;
56481;SDS011;42384;45.186;19.958;2023-04-05T01:00:03;4.95;;;2.90;;
56481;SDS011;42384;45.186;19.958;2023-04-05T01:02:51;7.47;;;2.60;;
56481;SDS011;42384;45.186;19.958;2023-04-05T01:05:42;6.30;;;2.53;;
56481;SDS011;42384;45.186;19.958;2023-04-05T01:10:43;6.57;;;2.95;;
56481;SDS011;42384;45.186;19.958;2023-04-05T01:13:11;6.43;;;2.60;;
56481;SDS011;42384;45.186;19.958;2023-04-05T01:15:37;4.72;;;2.88;;
56481;SDS011;42384;45.186;19.958;2023-04-05T01:18:04;5.85;;;3.00;;
56481;SDS011;42384;45.186;19.958;2023-04-05T01:20:30;9.15;;;3.30;;
56481;SDS011;42384;45.186;19.958;2023-04-05T01:23:04;9.10;;;4.40;;
56481;SDS011;42384;45.186;19.958;2023-04-05T01:28:28;6.13;;;3.03;;
56481;SDS011;42384;45.186;19.958;2023-04-05T01:33:34;6.40;;;3.00;;
56481;SDS011;42384;45.186;19.958;2023-04-05T01:38:29;7.10;;;3.30;;
56481;SDS011;42384;45.186;19.958;2023-04-05T01:40:56;6.15;;;2.90;;
56481;SDS011;42384;45.186;19.958;2023-04-05T01:43:22;7.60;;;3.42;;
56481;SDS011;42384;45.186;19.958;2023-04-05T01:45:49;9.35;;;3.30;;
56481;SDS011;42384;45.186;19.958;2023-04-05T01:48:15;6.40;;;3.65;;
56481;SDS011;42384;45.186;19.958;2023-04-05T01:50:41;6.55;;;3.25;;
56481;SDS011;42384;45.186;19.958;2023-04-05T01:53:07;6.63;;;2.97;;
56481;SDS011;42384;45.186;19.958;2023-04-05T01:55:33;7.85;;;3.40;;
56481;SDS011;42384;45.186;19.958;2023-04-05T01:58:00;10.48;;;3.90;;
56481;SDS011;42384;45.186;19.958;2023-04-05T02:00:26;6.35;;;3.17;;
56481;SDS011;42384;45.186;19.958;2023-04-05T02:02:52;6.82;;;3.78;;
56481;SDS011;42384;45.186;19.958;2023-04-05T02:05:18;7.50;;;3.58;;
56481;SDS011;42384;45.186;19.958;2023-04-05T02:07:45;8.55;;;3.47;;
56481;SDS011;42384;45.186;19.958;2023-04-05T02:10:11;7.97;;;3.60;;
56481;SDS011;42384;45.186;19.958;2023-04-05T02:12:37;6.30;;;2.67;;
56481;SDS011;42384;45.186;19.958;2023-04-05T02:15:04;7.25;;;3.47;;
56481;SDS011;42384;45.186;19.958;2023-04-05T02:17:30;7.35;;;3.22;;
56481;SDS011;42384;45.186;19.958;2023-04-05T02:20:03;8.77;;;3.53;;
56481;SDS011;42384;45.186;19.958;2023-04-05T02:22:31;7.72;;;3.65;;
56481;SDS011;42384;45.186;19.958;2023-04-05T02:24:57;5.70;;;3.28;;
56481;SDS011;42384;45.186;19.958;2023-04-05T02:27:23;7.35;;;3.78;;
56481;SDS011;42384;45.186;19.958;2023-04-05T02:29:50;8.32;;;3.88;;
56481;SDS011;42384;45.186;19.958;2023-04-05T02:32:17;7.63;;;4.30;;
56481;SDS011;42384;45.186;19.958;2023-04-05T02:34:43;9.20;;;3.50;;
56481;SDS011;42384;45.186;19.958;2023-04-05T02:37:10;10.30;;;4.32;;
56481;SDS011;42384;45.186;19.958;2023-04-05T02:39:36;8.15;;;3.80;;
56481;SDS011;42384;45.186;19.958;2023-04-05T02:42:02;9.95;;;4.13;;
56481;SDS011;42384;45.186;19.958;2023-04-05T02:44:29;7.72;;;4.53;;
56481;SDS011;42384;45.186;19.958;2023-04-05T02:46:55;6.55;;;3.60;;
56481;SDS011;42384;45.186;19.958;2023-04-05T02:49:21;6.78;;;3.70;;
56481;SDS011;42384;45.186;19.958;2023-04-05T02:51:47;7.18;;;3.95;;
56481;SDS011;42384;45.186;19.958;2023-04-05T02:54:14;8.70;;;3.97;;
56481;SDS011;42384;45.186;19.958;2023-04-05T02:56:40;6.55;;;3.72;;
56481;SDS011;42384;45.186;19.958;2023-04-05T02:59:07;7.82;;;4.03;;
56481;SDS011;42384;45.186;19.958;2023-04-05T03:01:33;7.90;;;4.20;;
56481;SDS011;42384;45.186;19.958;2023-04-05T03:04:01;8.50;;;3.58;;
56481;SDS011;42384;45.186;19.958;2023-04-05T03:06:27;8.95;;;4.07;;
56481;SDS011;42384;45.186;19.958;2023-04-05T03:08:55;10.27;;;3.88;;
56481;SDS011;42384;45.186;19.958;2023-04-05T03:11:21;7.53;;;3.75;;
56481;SDS011;42384;45.186;19.958;2023-04-05T03:13:48;8.98;;;4.00;;
56481;SDS011;42384;45.186;19.958;2023-04-05T03:16:14;10.73;;;3.92;;
56481;SDS011;42384;45.186;19.958;2023-04-05T03:18:40;7.80;;;3.97;;
56481;SDS011;42384;45.186;19.958;2023-04-05T03:21:06;7.55;;;3.78;;
56481;SDS011;42384;45.186;19.958;2023-04-05T03:23:36;8.95;;;4.43;;
56481;SDS011;42384;45.186;19.958;2023-04-05T03:26:03;7.50;;;3.88;;
56481;SDS011;42384;45.186;19.958;2023-04-05T03:28:30;8.02;;;3.97;;
56481;SDS011;42384;45.186;19.958;2023-04-05T03:30:57;7.55;;;4.43;;
56481;SDS011;42384;45.186;19.958;2023-04-05T03:33:23;10.95;;;3.78;;
56481;SDS011;42384;45.186;19.958;2023-04-05T03:35:50;6.32;;;3.75;;
56481;SDS011;42384;45.186;19.958;2023-04-05T03:38:16;7.85;;;4.30;;
56481;SDS011;42384;45.186;19.958;2023-04-05T03:40:42;6.45;;;3.83;;
56481;SDS011;42384;45.186;19.958;2023-04-05T03:43:08;10.82;;;3.85;;
56481;SDS011;42384;45.186;19.958;2023-04-05T03:45:35;7.93;;;3.72;;
56481;SDS011;42384;45.186;19.958;2023-04-05T03:48:01;9.57;;;3.90;;
56481;SDS011;42384;45.186;19.958;2023-04-05T03:50:28;7.70;;;4.32;;
56481;SDS011;42384;45.186;19.958;2023-04-05T03:52:54;6.60;;;3.90;;
56481;SDS011;42384;45.186;19.958;2023-04-05T03:55:21;13.80;;;4.20;;
56481;SDS011;42384;45.186;19.958;2023-04-05T03:57:47;8.52;;;4.85;;
56481;SDS011;42384;45.186;19.958;2023-04-05T04:00:14;9.82;;;5.43;;
56481;SDS011;42384;45.186;19.958;2023-04-05T04:02:45;9.13;;;4.53;;
56481;SDS011;42384;45.186;19.958;2023-04-05T04:05:12;13.05;;;5.25;;
56481;SDS011;42384;45.186;19.958;2023-04-05T04:07:39;8.63;;;4.93;;
56481;SDS011;42384;45.186;19.958;2023-04-05T04:10:06;9.07;;;5.30;;
56481;SDS011;42384;45.186;19.958;2023-04-05T04:12:33;11.32;;;6.00;;
56481;SDS011;42384;45.186;19.958;2023-04-05T04:14:59;12.48;;;5.45;;
56481;SDS011;42384;45.186;19.958;2023-04-05T04:17:29;13.83;;;5.93;;
56481;SDS011;42384;45.186;19.958;2023-04-05T04:19:55;12.57;;;5.68;;
56481;SDS011;42384;45.186;19.958;2023-04-05T04:22:22;11.10;;;5.40;;
56481;SDS011;42384;45.186;19.958;2023-04-05T04:24:53;13.90;;;6.55;;
56481;SDS011;42384;45.186;19.958;2023-04-05T04:27:20;13.57;;;6.88;;
56481;SDS011;42384;45.186;19.958;2023-04-05T04:29:46;11.55;;;6.40;;
56481;SDS011;42384;45.186;19.958;2023-04-05T04:32:15;12.17;;;6.60;;
56481;SDS011;42384;45.186;19.958;2023-04-05T04:34:46;13.40;;;6.63;;
56481;SDS011;42384;45.186;19.958;2023-04-05T04:37:14;13.10;;;6.47;;
56481;SDS011;42384;45.186;19.958;2023-04-05T04:39:47;9.60;;;5.57;;
56481;SDS011;42384;45.186;19.958;2023-04-05T04:42:13;15.52;;;7.10;;
56481;SDS011;42384;45.186;19.958;2023-04-05T04:44:47;12.07;;;6.50;;
56481;SDS011;42384;45.186;19.958;2023-04-05T04:47:13;11.67;;;5.97;;
56481;SDS011;42384;45.186;19.958;2023-04-05T04:49:41;12.75;;;6.60;;
56481;SDS011;42384;45.186;19.958;2023-04-05T04:52:08;11.55;;;6.55;;
56481;SDS011;42384;45.186;19.958;2023-04-05T04:54:34;15.02;;;6.88;;
56481;SDS011;42384;45.186;19.958;2023-04-05T04:57:01;16.95;;;7.43;;
56481;SDS011;42384;45.186;19.958;2023-04-05T04:59:28;15.75;;;7.45;;
56481;SDS011;42384;45.186;19.958;2023-04-05T05:01:54;10.27;;;6.20;;
56481;SDS011;42384;45.186;19.958;2023-04-05T05:04:20;15.82;;;7.88;;
56481;SDS011;42384;45.186;19.958;2023-04-05T05:06:49;16.25;;;7.30;;
56481;SDS011;42384;45.186;19.958;2023-04-05T05:09:16;12.27;;;6.60;;
56481;SDS011;42384;45.186;19.958;2023-04-05T05:11:42;14.38;;;6.78;;
56481;SDS011;42384;45.186;19.958;2023-04-05T05:14:08;15.02;;;7.38;;
56481;SDS011;42384;45.186;19.958;2023-04-05T05:16:34;20.40;;;8.40;;
56481;SDS011;42384;45.186;19.958;2023-04-05T05:19:01;16.77;;;7.97;;
56481;SDS011;42384;45.186;19.958;2023-04-05T05:21:27;15.33;;;7.17;;
56481;SDS011;42384;45.186;19.958;2023-04-05T05:23:53;16.73;;;7.30;;
56481;SDS011;42384;45.186;19.958;2023-04-05T05:26:20;17.02;;;6.97;;
56481;SDS011;42384;45.186;19.958;2023-04-05T05:28:46;14.52;;;6.85;;
56481;SDS011;42384;45.186;19.958;2023-04-05T05:31:13;13.85;;;7.03;;
56481;SDS011;42384;45.186;19.958;2023-04-05T05:33:41;11.90;;;6.72;;
56481;SDS011;42384;45.186;19.958;2023-04-05T05:36:11;14.50;;;7.15;;
56481;SDS011;42384;45.186;19.958;2023-04-05T05:38:38;13.05;;;7.15;;
56481;SDS011;42384;45.186;19.958;2023-04-05T05:41:04;16.15;;;7.78;;
56481;SDS011;42384;45.186;19.958;2023-04-05T05:43:30;19.48;;;9.25;;
56481;SDS011;42384;45.186;19.958;2023-04-05T05:45:59;17.15;;;7.97;;
56481;SDS011;42384;45.186;19.958;2023-04-05T05:48:25;12.30;;;7.35;;
56481;SDS011;42384;45.186;19.958;2023-04-05T05:50:51;15.18;;;6.70;;
56481;SDS011;42384;45.186;19.958;2023-04-05T05:53:18;13.40;;;6.70;;
56481;SDS011;42384;45.186;19.958;2023-04-05T05:55:45;15.27;;;7.37;;
56481;SDS011;42384;45.186;19.958;2023-04-05T05:58:11;12.40;;;7.20;;
56481;SDS011;42384;45.186;19.958;2023-04-05T06:00:37;17.88;;;7.85;;
56481;SDS011;42384;45.186;19.958;2023-04-05T06:03:04;15.55;;;7.60;;
56481;SDS011;42384;45.186;19.958;2023-04-05T06:05:30;13.13;;;7.93;;
56481;SDS011;42384;45.186;19.958;2023-04-05T06:07:56;14.30;;;7.40;;
56481;SDS011;42384;45.186;19.958;2023-04-05T06:10:23;14.13;;;7.47;;
56481;SDS011;42384;45.186;19.958;2023-04-05T06:12:49;16.10;;;7.30;;
56481;SDS011;42384;45.186;19.958;2023-04-05T06:15:16;12.55;;;7.03;;
56481;SDS011;42384;45.186;19.958;2023-04-05T06:17:42;12.48;;;6.63;;
56481;SDS011;42384;45.186;19.958;2023-04-05T06:20:09;14.17;;;7.07;;
56481;SDS011;42384;45.186;19.958;2023-04-05T06:22:36;17.50;;;7.22;;
56481;SDS011;42384;45.186;19.958;2023-04-05T06:25:04;14.73;;;6.63;;
56481;SDS011;42384;45.186;19.958;2023-04-05T06:27:30;14.13;;;6.53;;
56481;SDS011;42384;45.186;19.958;2023-04-05T06:29:59;11.27;;;6.50;;
56481;SDS011;42384;45.186;19.958;2023-04-05T06:32:26;11.52;;;6.40;;
56481;SDS011;42384;45.186;19.958;2023-04-05T06:34:52;10.57;;;6.47;;
56481;SDS011;42384;45.186;19.958;2023-04-05T06:37:18;9.13;;;5.75;;
56481;SDS011;42384;45.186;19.958;2023-04-05T06:39:44;14.88;;;6.90;;
56481;SDS011;42384;45.186;19.958;2023-04-05T06:42:11;10.82;;;6.40;;
56481;SDS011;42384;45.186;19.958;2023-04-05T06:44:37;13.50;;;6.55;;
56481;SDS011;42384;45.186;19.958;2023-04-05T06:47:03;13.98;;;6.90;;
56481;SDS011;42384;45.186;19.958;2023-04-05T06:49:30;12.40;;;6.30;;
56481;SDS011;42384;45.186;19.958;2023-04-05T06:51:56;13.65;;;6.30;;
56481;SDS011;42384;45.186;19.958;2023-04-05T06:54:22;12.23;;;6.00;;
56481;SDS011;42384;45.186;19.958;2023-04-05T06:56:49;12.95;;;6.57;;
56481;SDS011;42384;45.186;19.958;2023-04-05T06:59:15;15.13;;;7.90;;
56481;SDS011;42384;45.186;19.958;2023-04-05T07:01:42;12.80;;;6.03;;
56481;SDS011;42384;45.186;19.958;2023-04-05T07:04:08;12.68;;;6.82;;
56481;SDS011;42384;45.186;19.958;2023-04-05T07:06:35;15.17;;;6.33;;
56481;SDS011;42384;45.186;19.958;2023-04-05T07:09:03;13.50;;;6.78;;
56481;SDS011;42384;45.186;19.958;2023-04-05T07:11:29;13.87;;;6.37;;
56481;SDS011;42384;45.186;19.958;2023-04-05T07:13:59;11.73;;;6.40;;
56481;SDS011;42384;45.186;19.958;2023-04-05T07:16:26;12.77;;;6.95;;
56481;SDS011;42384;45.186;19.958;2023-04-05T07:18:54;13.63;;;7.03;;
56481;SDS011;42384;45.186;19.958;2023-04-05T07:21:21;11.88;;;5.82;;
56481;SDS011;42384;45.186;19.958;2023-04-05T07:23:48;14.73;;;6.13;;
56481;SDS011;42384;45.186;19.958;2023-04-05T07:26:14;11.88;;;6.45;;
56481;SDS011;42384;45.186;19.958;2023-04-05T07:28:40;9.30;;;4.95;;
56481;SDS011;42384;45.186;19.958;2023-04-05T07:31:06;15.32;;;6.97;;
56481;SDS011;42384;45.186;19.958;2023-04-05T07:33:33;10.15;;;5.85;;
56481;SDS011;42384;45.186;19.958;2023-04-05T07:35:59;8.80;;;5.72;;
56481;SDS011;42384;45.186;19.958;2023-04-05T07:38:27;13.05;;;6.10;;
56481;SDS011;42384;45.186;19.958;2023-04-05T07:40:55;11.40;;;6.40;;
56481;SDS011;42384;45.186;19.958;2023-04-05T07:43:21;8.48;;;5.07;;
56481;SDS011;42384;45.186;19.958;2023-04-05T07:45:49;8.85;;;5.20;;
56481;SDS011;42384;45.186;19.958;2023-04-05T07:48:18;10.05;;;4.82;;
56481;SDS011;42384;45.186;19.958;2023-04-05T07:50:44;9.05;;;5.35;;
56481;SDS011;42384;45.186;19.958;2023-04-05T07:53:12;11.13;;;5.95;;
56481;SDS011;42384;45.186;19.958;2023-04-05T07:55:38;11.30;;;6.25;;
56481;SDS011;42384;45.186;19.958;2023-04-05T07:58:05;11.05;;;6.25;;
56481;SDS011;42384;45.186;19.958;2023-04-05T08:00:32;14.30;;;6.00;;
56481;SDS011;42384;45.186;19.958;2023-04-05T08:02:58;12.33;;;6.67;;
56481;SDS011;42384;45.186;19.958;2023-04-05T08:05:26;12.48;;;6.43;;
56481;SDS011;42384;45.186;19.958;2023-04-05T08:07:52;12.25;;;6.40;;
56481;SDS011;42384;45.186;19.958;2023-04-05T08:10:19;12.05;;;6.50;;
56481;SDS011;42384;45.186;19.958;2023-04-05T08:12:46;13.40;;;6.60;;
56481;SDS011;42384;45.186;19.958;2023-04-05T08:15:12;13.13;;;6.05;;
56481;SDS011;42384;45.186;19.958;2023-04-05T08:17:38;10.75;;;5.93;;
56481;SDS011;42384;45.186;19.958;2023-04-05T08:20:05;10.50;;;6.43;;
56481;SDS011;42384;45.186;19.958;2023-04-05T08:22:31;13.10;;;6.22;;
56481;SDS011;42384;45.186;19.958;2023-04-05T08:24:58;13.05;;;7.22;;
56481;SDS011;42384;45.186;19.958;2023-04-05T08:27:24;9.15;;;5.72;;
56481;SDS011;42384;45.186;19.958;2023-04-05T08:29:50;10.40;;;5.82;;
56481;SDS011;42384;45.186;19.958;2023-04-05T08:32:16;12.02;;;6.20;;
56481;SDS011;42384;45.186;19.958;2023-04-05T08:34:43;16.70;;;7.15;;
56481;SDS011;42384;45.186;19.958;2023-04-05T08:37:09;10.38;;;6.22;;
56481;SDS011;42384;45.186;19.958;2023-04-05T08:39:35;13.73;;;7.18;;
56481;SDS011;42384;45.186;19.958;2023-04-05T08:42:14;12.15;;;6.85;;
56481;SDS011;42384;45.186;19.958;2023-04-05T08:44:41;10.18;;;5.90;;
56481;SDS011;42384;45.186;19.958;2023-04-05T08:47:09;12.70;;;6.60;;
56481;SDS011;42384;45.186;19.958;2023-04-05T08:49:43;15.88;;;6.93;;
56481;SDS011;42384;45.186;19.958;2023-04-05T08:52:09;13.80;;;6.43;;
56481;SDS011;42384;45.186;19.958;2023-04-05T08:54:36;14.27;;;6.93;;
56481;SDS011;42384;45.186;19.958;2023-04-05T08:57:02;17.30;;;7.57;;
56481;SDS011;42384;45.186;19.958;2023-04-05T08:59:30;16.00;;;6.97;;
56481;SDS011;42384;45.186;19.958;2023-04-05T09:01:59;13.07;;;7.28;;
56481;SDS011;42384;45.186;19.958;2023-04-05T09:04:28;14.25;;;6.75;;
56481;SDS011;42384;45.186;19.958;2023-04-05T09:06:56;11.00;;;6.43;;
56481;SDS011;42384;45.186;19.958;2023-04-05T09:09:23;12.70;;;6.60;;
56481;SDS011;42384;45.186;19.958;2023-04-05T09:11:50;13.50;;;6.93;;
56481;SDS011;42384;45.186;19.958;2023-04-05T09:14:16;13.43;;;7.25;;
56481;SDS011;42384;45.186;19.958;2023-04-05T09:16:42;11.97;;;7.00;;
56481;SDS011;42384;45.186;19.958;2023-04-05T09:19:09;11.20;;;7.05;;
56481;SDS011;42384;45.186;19.958;2023-04-05T09:27:18;15.85;;;6.80;;
56481;SDS011;42384;45.186;19.958;2023-04-05T09:29:45;11.15;;;6.20;;
56481;SDS011;42384;45.186;19.958;2023-04-05T09:32:12;9.90;;;5.70;;
56481;SDS011;42384;45.186;19.958;2023-04-05T09:34:39;14.02;;;6.05;;
56481;SDS011;42384;45.186;19.958;2023-04-05T09:39:41;11.77;;;5.68;;
56481;SDS011;42384;45.186;19.958;2023-04-05T09:42:14;10.30;;;5.70;;
56481;SDS011;42384;45.186;19.958;2023-04-05T09:44:56;10.35;;;5.75;;
56481;SDS011;42384;45.186;19.958;2023-04-05T09:47:27;13.38;;;7.00;;
56481;SDS011;42384;45.186;19.958;2023-04-05T09:50:03;11.45;;;6.68;;
56481;SDS011;42384;45.186;19.958;2023-04-05T09:52:42;12.20;;;5.63;;
56481;SDS011;42384;45.186;19.958;2023-04-05T09:55:09;13.55;;;5.45;;
56481;SDS011;42384;45.186;19.958;2023-04-05T09:57:36;11.35;;;5.22;;
56481;SDS011;42384;45.186;19.958;2023-04-05T10:00:03;12.10;;;5.13;;
56481;SDS011;42384;45.186;19.958;2023-04-05T10:02:34;9.63;;;4.85;;
56481;SDS011;42384;45.186;19.958;2023-04-05T10:05:04;10.00;;;4.93;;
56481;SDS011;42384;45.186;19.958;2023-04-05T10:07:31;17.70;;;8.48;;
56481;SDS011;42384;45.186;19.958;2023-04-05T10:09:57;12.20;;;5.27;;
56481;SDS011;42384;45.186;19.958;2023-04-05T10:12:24;12.88;;;7.25;;
56481;SDS011;42384;45.186;19.958;2023-04-05T10:14:54;13.10;;;7.25;;
56481;SDS011;42384;45.186;19.958;2023-04-05T10:19:59;11.37;;;5.90;;
56481;SDS011;42384;45.186;19.958;2023-04-05T10:25:12;11.43;;;5.15;;
56481;SDS011;42384;45.186;19.958;2023-04-05T10:27:46;7.93;;;4.78;;
56481;SDS011;42384;45.186;19.958;2023-04-05T10:30:13;13.18;;;5.45;;
56481;SDS011;42384;45.186;19.958;2023-04-05T10:33:00;12.57;;;6.00;;
56481;SDS011;42384;45.186;19.958;2023-04-05T10:38:16;15.65;;;5.32;;
56481;SDS011;42384;45.186;19.958;2023-04-05T10:43:16;8.73;;;4.75;;
56481;SDS011;42384;45.186;19.958;2023-04-05T10:45:44;8.65;;;4.50;;
56481;SDS011;42384;45.186;19.958;2023-04-05T10:48:20;10.18;;;5.10;;
56481;SDS011;42384;45.186;19.958;2023-04-05T10:50:46;14.82;;;5.47;;
56481;SDS011;42384;45.186;19.958;2023-04-05T10:53:14;14.25;;;6.85;;
56481;SDS011;42384;45.186;19.958;2023-04-05T10:58:06;15.75;;;6.07;;
56481;SDS011;42384;45.186;19.958;2023-04-05T11:00:33;11.47;;;5.57;;
56481;SDS011;42384;45.186;19.958;2023-04-05T11:02:59;12.57;;;6.17;;
56481;SDS011;42384;45.186;19.958;2023-04-05T11:05:29;9.65;;;5.68;;
56481;SDS011;42384;45.186;19.958;2023-04-05T11:08:02;11.48;;;6.32;;
56481;SDS011;42384;45.186;19.958;2023-04-05T11:10:28;10.75;;;5.88;;
56481;SDS011;42384;45.186;19.958;2023-04-05T11:15:27;13.85;;;5.95;;
56481;SDS011;42384;45.186;19.958;2023-04-05T11:20:39;11.18;;;5.93;;
56481;SDS011;42384;45.186;19.958;2023-04-05T11:23:06;12.23;;;6.13;;
56481;SDS011;42384;45.186;19.958;2023-04-05T11:25:36;12.07;;;6.03;;
56481;SDS011;42384;45.186;19.958;2023-04-05T11:28:06;10.57;;;5.72;;
56481;SDS011;42384;45.186;19.958;2023-04-05T11:32:59;9.00;;;5.57;;
56481;SDS011;42384;45.186;19.958;2023-04-05T11:35:25;8.73;;;6.18;;
56481;SDS011;42384;45.186;19.958;2023-04-05T11:40:29;12.43;;;6.63;;
56481;SDS011;42384;45.186;19.958;2023-04-05T11:45:31;13.10;;;6.20;;
56481;SDS011;42384;45.186;19.958;2023-04-05T11:47:58;8.27;;;5.55;;
56481;SDS011;42384;45.186;19.958;2023-04-05T11:53:12;11.93;;;6.00;;
56481;SDS011;42384;45.186;19.958;2023-04-05T11:55:38;13.20;;;6.10;;
56481;SDS011;42384;45.186;19.958;2023-04-05T11:58:11;16.65;;;7.28;;
56481;SDS011;42384;45.186;19.958;2023-04-05T12:00:37;11.48;;;5.65;;
56481;SDS011;42384;45.186;19.958;2023-04-05T12:03:04;15.15;;;6.13;;
56481;SDS011;42384;45.186;19.958;2023-04-05T12:08:15;12.25;;;6.80;;
56481;SDS011;42384;45.186;19.958;2023-04-05T12:10:42;10.20;;;6.25;;
56481;SDS011;42384;45.186;19.958;2023-04-05T12:13:08;11.27;;;6.60;;
56481;SDS011;42384;45.186;19.958;2023-04-05T12:15:36;11.27;;;5.97;;
56481;SDS011;42384;45.186;19.958;2023-04-05T12:18:03;12.73;;;6.30;;
56481;SDS011;42384;45.186;19.958;2023-04-05T12:20:31;13.05;;;5.63;;
56481;SDS011;42384;45.186;19.958;2023-04-05T12:22:58;10.55;;;5.22;;
56481;SDS011;42384;45.186;19.958;2023-04-05T12:25:24;8.63;;;5.50;;
56481;SDS011;42384;45.186;19.958;2023-04-05T12:27:51;8.95;;;5.30;;
56481;SDS011;42384;45.186;19.958;2023-04-05T12:30:18;14.50;;;5.80;;
56481;SDS011;42384;45.186;19.958;2023-04-05T12:32:45;11.02;;;6.05;;
56481;SDS011;42384;45.186;19.958;2023-04-05T12:37:38;9.73;;;4.82;;
56481;SDS011;42384;45.186;19.958;2023-04-05T12:42:34;10.50;;;5.57;;
56481;SDS011;42384;45.186;19.958;2023-04-05T12:45:01;9.15;;;5.45;;
56481;SDS011;42384;45.186;19.958;2023-04-05T12:47:28;9.90;;;5.78;;
56481;SDS011;42384;45.186;19.958;2023-04-05T12:49:54;13.00;;;7.28;;
56481;SDS011;42384;45.186;19.958;2023-04-05T12:52:21;9.98;;;6.57;;
56481;SDS011;42384;45.186;19.958;2023-04-05T12:54:53;13.45;;;7.78;;
56481;SDS011;42384;45.186;19.958;2023-04-05T12:57:32;14.07;;;6.97;;
56481;SDS011;42384;45.186;19.958;2023-04-05T12:59:58;11.43;;;7.45;;
56481;SDS011;42384;45.186;19.958;2023-04-05T13:02:24;10.85;;;7.05;;
56481;SDS011;42384;45.186;19.958;2023-04-05T13:04:51;15.10;;;7.20;;
56481;SDS011;42384;45.186;19.958;2023-04-05T13:07:18;11.38;;;6.80;;
56481;SDS011;42384;45.186;19.958;2023-04-05T13:09:44;12.00;;;7.97;;
56481;SDS011;42384;45.186;19.958;2023-04-05T13:12:10;15.15;;;8.30;;
56481;SDS011;42384;45.186;19.958;2023-04-05T13:14:36;15.45;;;8.32;;
56481;SDS011;42384;45.186;19.958;2023-04-05T13:17:02;11.77;;;7.68;;
56481;SDS011;42384;45.186;19.958;2023-04-05T13:19:28;14.57;;;9.15;;
56481;SDS011;42384;45.186;19.958;2023-04-05T13:21:54;15.65;;;7.93;;
56481;SDS011;42384;45.186;19.958;2023-04-05T13:24:21;14.48;;;8.50;;
56481;SDS011;42384;45.186;19.958;2023-04-05T13:26:47;16.42;;;8.65;;
56481;SDS011;42384;45.186;19.958;2023-04-05T13:29:13;17.90;;;7.97;;
56481;SDS011;42384;45.186;19.958;2023-04-05T13:31:39;16.85;;;8.75;;
56481;SDS011;42384;45.186;19.958;2023-04-05T13:34:06;14.60;;;8.10;;
56481;SDS011;42384;45.186;19.958;2023-04-05T13:36:32;13.65;;;7.95;;
56481;SDS011;42384;45.186;19.958;2023-04-05T13:38:58;18.40;;;8.10;;
56481;SDS011;42384;45.186;19.958;2023-04-05T13:41:25;20.83;;;9.40;;
56481;SDS011;42384;45.186;19.958;2023-04-05T13:43:51;14.73;;;8.05;;
56481;SDS011;42384;45.186;19.958;2023-04-05T13:46:17;13.10;;;8.18;;
56481;SDS011;42384;45.186;19.958;2023-04-05T13:48:43;16.77;;;8.15;;
56481;SDS011;42384;45.186;19.958;2023-04-05T13:51:09;17.73;;;8.68;;
56481;SDS011;42384;45.186;19.958;2023-04-05T13:53:35;14.23;;;8.65;;
56481;SDS011;42384;45.186;19.958;2023-04-05T13:56:01;15.50;;;7.75;;
56481;SDS011;42384;45.186;19.958;2023-04-05T13:58:28;13.90;;;8.20;;
56481;SDS011;42384;45.186;19.958;2023-04-05T14:00:54;15.88;;;7.60;;
56481;SDS011;42384;45.186;19.958;2023-04-05T14:03:20;14.93;;;7.13;;
56481;SDS011;42384;45.186;19.958;2023-04-05T14:05:46;13.82;;;7.15;;
56481;SDS011;42384;45.186;19.958;2023-04-05T14:08:12;11.75;;;7.82;;
56481;SDS011;42384;45.186;19.958;2023-04-05T14:10:38;10.85;;;6.78;;
56481;SDS011;42384;45.186;19.958;2023-04-05T14:13:05;10.35;;;6.25;;
56481;SDS011;42384;45.186;19.958;2023-04-05T14:15:31;13.02;;;6.40;;
56481;SDS011;42384;45.186;19.958;2023-04-05T14:17:58;13.77;;;7.40;;
56481;SDS011;42384;45.186;19.958;2023-04-05T14:20:24;11.97;;;7.40;;
56481;SDS011;42384;45.186;19.958;2023-04-05T14:22:51;9.52;;;6.13;;
56481;SDS011;42384;45.186;19.958;2023-04-05T14:25:17;12.32;;;6.68;;
56481;SDS011;42384;45.186;19.958;2023-04-05T14:27:43;15.90;;;7.22;;
56481;SDS011;42384;45.186;19.958;2023-04-05T14:30:09;11.90;;;6.70;;
56481;SDS011;42384;45.186;19.958;2023-04-05T14:32:36;12.30;;;7.20;;
56481;SDS011;42384;45.186;19.958;2023-04-05T14:35:02;15.77;;;7.77;;
56481;SDS011;42384;45.186;19.958;2023-04-05T14:37:28;14.70;;;7.78;;
56481;SDS011;42384;45.186;19.958;2023-04-05T14:39:55;16.42;;;6.82;;
56481;SDS011;42384;45.186;19.958;2023-04-05T14:42:21;12.60;;;8.13;;
56481;SDS011;42384;45.186;19.958;2023-04-05T14:44:47;14.60;;;7.20;;
56481;SDS011;42384;45.186;19.958;2023-04-05T14:47:13;16.65;;;8.38;;
56481;SDS011;42384;45.186;19.958;2023-04-05T14:49:40;13.15;;;7.43;;
56481;SDS011;42384;45.186;19.958;2023-04-05T14:52:06;14.00;;;8.80;;
56481;SDS011;42384;45.186;19.958;2023-04-05T14:54:32;14.38;;;8.95;;
56481;SDS011;42384;45.186;19.958;2023-04-05T14:56:58;13.65;;;8.35;;
56481;SDS011;42384;45.186;19.958;2023-04-05T14:59:24;14.65;;;8.75;;
56481;SDS011;42384;45.186;19.958;2023-04-05T15:01:51;12.85;;;7.35;;
56481;SDS011;42384;45.186;19.958;2023-04-05T15:04:18;11.38;;;7.32;;
56481;SDS011;42384;45.186;19.958;2023-04-05T15:06:44;12.85;;;8.32;;
56481;SDS011;42384;45.186;19.958;2023-04-05T15:09:10;11.50;;;7.93;;
56481;SDS011;42384;45.186;19.958;2023-04-05T15:11:36;14.70;;;8.73;;
56481;SDS011;42384;45.186;19.958;2023-04-05T15:14:04;14.80;;;8.15;;
56481;SDS011;42384;45.186;19.958;2023-04-05T15:16:30;13.50;;;8.30;;
56481;SDS011;42384;45.186;19.958;2023-04-05T15:18:56;15.65;;;8.07;;
56481;SDS011;42384;45.186;19.958;2023-04-05T15:21:25;15.93;;;8.13;;
56481;SDS011;42384;45.186;19.958;2023-04-05T15:23:51;13.05;;;7.57;;